Boiestown, Canada
Current Conditions -  °F | °C
As of 7:36 PM on Saturday 25 Oct 2014 (Local Time) from CYFC Reporting Station
Haze Haze  
Wind Chill: 41°   Ceiling: 1200
Heat Index: 45°   Visibility: 6mi
Dew Point: 43°   Wind: 7mph
Humidity: 93%   Direction: 40°NE
Pressure: 29.56"   Gusts: NA
Location:  46.45°N, 66.4°W
Report Text: CYFC 252236Z AUTO 04006KT 6SM BR SCT007 BKN012 OVC020 07/06 A2956 RMK SLP012
Loading
Personal Weather Stations






























Interactive Weather Map
Tropical Storm Tracking
New forecast layout! Learn more

10-Day Weather Forecast

Advertisements
Track Severe Weather on mobile